Time;durP1;ratioP1;P1;durP2;ratioP2;P2;SDS_P1;SDS_P2;PMS_P1;PMS_P2;Temp;Humidity;BMP_temperature;BMP_pressure;BME280_temperature;BME280_humidity;BME280_pressure;Samples;Min_cycle;Max_cycle;Signal;HPM_P1;HPM_P2
2023/04/17 00:01:20;;;;;;;17.10;12.70;;;;;;;7.89;100.00;100454.36;110375;1276;22859;-67
2023/04/17 00:03:51;;;;;;;22.10;12.40;;;;;;;7.91;100.00;100449.56;110350;1276;23053;-66
2023/04/17 00:06:19;;;;;;;14.80;12.10;;;;;;;7.97;100.00;100450.77;109012;1276;22528;-67
2023/04/17 00:08:48;;;;;;;20.10;12.70;;;;;;;8.04;100.00;100451.91;107410;1276;22769;-67
2023/04/17 00:11:16;;;;;;;16.40;12.00;;;;;;;8.03;100.00;100451.13;107595;1273;23152;-67
2023/04/17 00:13:46;;;;;;;15.10;11.50;;;;;;;8.01;100.00;100453.25;107821;1275;22638;-67
2023/04/17 00:16:14;;;;;;;16.30;11.50;;;;;;;7.98;100.00;100455.13;107582;1276;25403;-67
2023/04/17 00:18:43;;;;;;;15.90;12.40;;;;;;;7.96;100.00;100455.69;107627;1273;27133;-67
2023/04/17 00:21:11;;;;;;;17.50;11.70;;;;;;;7.91;100.00;100458.11;107633;1273;22571;-68
2023/04/17 00:23:39;;;;;;;17.40;11.70;;;;;;;7.92;100.00;100455.37;107740;1273;24244;-68
2023/04/17 00:26:08;;;;;;;16.30;11.90;;;;;;;7.92;100.00;100459.93;107943;1270;25340;-68
2023/04/17 00:28:37;;;;;;;20.60;11.40;;;;;;;7.89;100.00;100456.83;107546;1276;22523;-67
2023/04/17 00:31:06;;;;;;;13.10;10.60;;;;;;;7.91;100.00;100457.86;107683;1271;22639;-68
2023/04/17 00:33:35;;;;;;;17.00;11.20;;;;;;;7.88;100.00;100456.38;107460;1270;26329;-68
2023/04/17 00:36:04;;;;;;;16.90;11.90;;;;;;;7.80;100.00;100454.72;107532;1276;22639;-67
2023/04/17 00:38:32;;;;;;;15.20;11.10;;;;;;;7.80;100.00;100457.86;110322;1275;22993;-68
2023/04/17 00:41:00;;;;;;;16.90;11.40;;;;;;;7.80;100.00;100454.23;110353;1275;22271;-67
2023/04/17 00:43:29;;;;;;;15.00;11.50;;;;;;;7.77;100.00;100453.54;110356;1276;22225;-67
2023/04/17 00:45:57;;;;;;;13.90;10.80;;;;;;;7.78;100.00;100451.30;110346;1276;22644;-67
2023/04/17 00:48:26;;;;;;;15.60;11.80;;;;;;;7.85;100.00;100449.69;110382;1272;22297;-67
2023/04/17 00:50:54;;;;;;;16.40;11.40;;;;;;;7.85;100.00;100452.35;110224;1275;22218;-67
2023/04/17 00:53:23;;;;;;;18.20;11.40;;;;;;;7.84;100.00;100452.21;110222;1276;22460;-67
2023/04/17 00:55:52;;;;;;;19.80;12.40;;;;;;;7.84;100.00;100447.77;110193;1276;23074;-68
2023/04/17 00:58:21;;;;;;;17.40;11.70;;;;;;;7.78;100.00;100444.21;110333;1276;22406;-68
2023/04/17 01:00:50;;;;;;;15.60;11.20;;;;;;;7.78;100.00;100446.51;110272;1276;22378;-68
2023/04/17 01:03:18;;;;;;;17.20;11.60;;;;;;;7.82;100.00;100443.98;110237;1276;22427;-68
2023/04/17 01:05:49;;;;;;;16.80;10.70;;;;;;;7.80;100.00;100443.39;110235;1276;23067;-68
2023/04/17 01:08:17;;;;;;;16.00;11.20;;;;;;;7.80;100.00;100442.92;110279;1276;22193;-68
2023/04/17 01:10:46;;;;;;;15.60;11.50;;;;;;;7.81;100.00;100440.62;110285;1275;22971;-68
2023/04/17 01:13:15;;;;;;;16.00;11.00;;;;;;;7.82;100.00;100440.14;110253;1275;22337;-68
2023/04/17 01:15:43;;;;;;;19.30;11.40;;;;;;;7.86;100.00;100437.98;110247;1271;23089;-67
2023/04/17 01:18:12;;;;;;;16.70;11.50;;;;;;;7.85;100.00;100438.09;110255;1276;22279;-68
2023/04/17 01:20:40;;;;;;;19.40;10.70;;;;;;;7.82;100.00;100443.65;110189;1270;23181;-68
2023/04/17 01:23:09;;;;;;;15.90;10.90;;;;;;;7.81;100.00;100442.08;110358;1276;22879;-68
2023/04/17 01:25:37;;;;;;;16.30;11.30;;;;;;;7.83;100.00;100444.77;110277;1270;22316;-69
2023/04/17 01:28:06;;;;;;;14.20;10.90;;;;;;;7.82;100.00;100447.06;110291;1276;22404;-68
2023/04/17 01:30:34;;;;;;;17.20;11.10;;;;;;;7.85;100.00;100448.02;110277;1272;22166;-68
2023/04/17 01:33:06;;;;;;;18.80;11.30;;;;;;;7.85;100.00;100446.80;110329;1276;23132;-68
2023/04/17 01:35:34;;;;;;;16.40;11.00;;;;;;;7.83;100.00;100451.73;110390;1272;22377;-67
2023/04/17 01:38:03;;;;;;;16.70;11.10;;;;;;;7.81;100.00;100448.78;110266;1276;22888;-68
2023/04/17 01:40:31;;;;;;;16.60;11.50;;;;;;;7.77;100.00;100448.31;110227;1275;22974;-68
2023/04/17 01:42:59;;;;;;;15.10;10.70;;;;;;;7.75;100.00;100448.48;110252;1276;22921;-68
2023/04/17 01:45:28;;;;;;;18.80;10.90;;;;;;;7.79;100.00;100443.58;110361;1276;22301;-68
2023/04/17 01:47:56;;;;;;;16.90;11.00;;;;;;;7.79;100.00;100447.00;110354;1274;22468;-68
2023/04/17 01:50:26;;;;;;;16.60;10.90;;;;;;;7.79;100.00;100446.83;110358;1274;22352;-68
2023/04/17 01:52:54;;;;;;;17.30;11.80;;;;;;;7.82;100.00;100447.85;110197;1276;22226;-68
2023/04/17 01:55:22;;;;;;;14.20;11.20;;;;;;;7.82;100.00;100449.20;110352;1272;22357;-68
2023/04/17 01:57:52;;;;;;;14.40;11.00;;;;;;;7.79;100.00;100454.21;110377;1276;22182;-68
2023/04/17 02:00:21;;;;;;;13.70;10.60;;;;;;;7.79;100.00;100454.48;110217;1275;23117;-68
2023/04/17 02:02:50;;;;;;;14.70;11.60;;;;;;;7.78;100.00;100453.82;110308;1276;22332;-67
2023/04/17 02:05:18;;;;;;;15.60;10.50;;;;;;;7.73;100.00;100454.39;110398;1276;22294;-68
2023/04/17 02:07:49;;;;;;;16.70;11.20;;;;;;;7.76;100.00;100450.68;109889;1270;22524;-67
2023/04/17 02:10:18;;;;;;;15.30;11.80;;;;;;;7.78;100.00;100447.36;108009;1276;24336;-68
2023/04/17 02:12:47;;;;;;;18.70;12.00;;;;;;;7.73;100.00;100446.76;107696;1276;22527;-68
2023/04/17 02:15:15;;;;;;;15.20;11.40;;;;;;;7.73;100.00;100448.22;107605;1276;22584;-68
2023/04/17 02:17:45;;;;;;;18.60;12.20;;;;;;;7.74;100.00;100450.19;107605;1273;23285;-68
2023/04/17 02:20:13;;;;;;;18.40;11.80;;;;;;;7.71;100.00;100448.65;107705;1273;25525;-67
2023/04/17 02:22:41;;;;;;;19.20;11.40;;;;;;;7.74;100.00;100448.95;107579;1269;26471;-68
2023/04/17 02:25:10;;;;;;;11.90;10.20;;;;;;;7.78;100.00;100448.18;107469;1276;23283;-68
2023/04/17 02:27:38;;;;;;;16.40;10.50;;;;;;;7.80;100.00;100450.06;107408;1276;25341;-68
2023/04/17 02:30:08;;;;;;;18.10;11.40;;;;;;;7.83;100.00;100455.77;107459;1270;22617;-68
2023/04/17 02:32:36;;;;;;;15.30;11.80;;;;;;;7.85;100.00;100456.26;107610;1275;23811;-67
2023/04/17 02:35:06;;;;;;;17.10;11.70;;;;;;;7.85;100.00;100456.31;107605;1272;22550;-68
2023/04/17 02:37:36;;;;;;;18.00;11.10;;;;;;;7.84;100.00;100458.88;108243;1270;25407;-67
2023/04/17 02:40:09;;;;;;;16.00;11.40;;;;;;;7.88;100.00;100459.47;107715;1276;25347;-67
2023/04/17 02:42:38;;;;;;;16.30;11.60;;;;;;;7.91;100.00;100461.75;107842;1276;24207;-67
2023/04/17 02:45:07;;;;;;;15.90;12.20;;;;;;;7.91;100.00;100463.91;107683;1273;24443;-68
2023/04/17 02:47:36;;;;;;;16.60;12.10;;;;;;;7.90;100.00;100465.36;107460;1275;23402;-68
2023/04/17 02:50:05;;;;;;;17.10;12.20;;;;;;;7.89;100.00;100464.66;107373;1275;25326;-67
2023/04/17 02:52:37;;;;;;;17.50;11.20;;;;;;;7.91;100.00;100467.67;107289;1276;25356;-67
2023/04/17 02:55:05;;;;;;;14.80;11.40;;;;;;;7.96;100.00;100469.52;107367;1276;24327;-68
2023/04/17 02:57:34;;;;;;;16.60;12.50;;;;;;;7.96;100.00;100474.63;107455;1273;26091;-67
2023/04/17 03:00:13;;;;;;;17.30;12.40;;;;;;;7.97;100.00;100477.83;107654;1276;22594;-67
2023/04/17 03:02:42;;;;;;;16.70;12.80;;;;;;;8.01;100.00;100477.11;107404;1276;25217;-68
2023/04/17 03:05:13;;;;;;;23.00;12.50;;;;;;;8.00;100.00;100478.30;107541;1270;22918;-67
2023/04/17 03:07:42;;;;;;;18.00;12.20;;;;;;;7.96;100.00;100475.16;107491;1270;27099;-68
2023/04/17 03:10:11;;;;;;;18.10;11.80;;;;;;;7.96;100.00;100481.63;107533;1269;23477;-68
2023/04/17 03:12:39;;;;;;;18.70;12.40;;;;;;;7.99;100.00;100479.78;107478;1273;23998;-67
2023/04/17 03:15:08;;;;;;;14.90;11.60;;;;;;;7.99;100.00;100483.73;107349;1272;23471;-67
2023/04/17 03:17:37;;;;;;;16.80;13.20;;;;;;;7.96;100.00;100483.08;107452;1274;22546;-67
2023/04/17 03:20:06;;;;;;;18.20;11.80;;;;;;;8.00;100.00;100487.89;107567;1270;27321;-68
2023/04/17 03:22:35;;;;;;;17.90;11.90;;;;;;;8.05;100.00;100488.27;107681;1276;22532;-68
2023/04/17 03:25:05;;;;;;;21.60;11.90;;;;;;;8.10;100.00;100489.52;107472;1270;25362;-68
2023/04/17 03:27:52;;;;;;;;;;;;;;;8.11;100.00;100490.79;107473;1276;22520;-67
2023/04/17 03:30:23;;;;;;;19.90;12.90;;;;;;;8.05;100.00;100495.19;107908;1270;22208;-68
2023/04/17 03:32:52;;;;;;;18.90;13.40;;;;;;;8.00;100.00;100495.98;110326;1276;22321;-68
2023/04/17 03:35:21;;;;;;;18.60;11.70;;;;;;;8.09;100.00;100496.58;110281;1273;22355;-68
2023/04/17 03:37:50;;;;;;;17.20;12.70;;;;;;;8.13;100.00;100494.08;110247;1273;22374;-68
2023/04/17 03:40:18;;;;;;;15.80;12.70;;;;;;;8.16;100.00;100493.93;110220;1273;22491;-67
2023/04/17 03:42:46;;;;;;;16.50;11.90;;;;;;;8.15;100.00;100496.08;110301;1276;22449;-67
2023/04/17 03:45:15;;;;;;;17.20;11.80;;;;;;;8.14;100.00;100499.27;110367;1276;22175;-67
2023/04/17 03:47:44;;;;;;;17.50;12.20;;;;;;;8.17;100.00;100498.09;110315;1276;22325;-69
2023/04/17 03:50:12;;;;;;;14.50;11.60;;;;;;;8.21;100.00;100498.23;110356;1276;23282;-67
2023/04/17 03:52:46;;;;;;;14.70;11.60;;;;;;;8.23;100.00;100503.85;110343;1276;22363;-68
2023/04/17 03:55:15;;;;;;;20.00;11.30;;;;;;;8.21;100.00;100503.27;110214;1273;22414;-68
2023/04/17 03:57:44;;;;;;;18.90;11.70;;;;;;;8.23;100.00;100508.75;110212;1270;22325;-68
2023/04/17 04:00:13;;;;;;;18.80;11.70;;;;;;;8.25;100.00;100508.77;110233;1276;22431;-68
2023/04/17 04:02:49;;;;;;;;;;;;;;;8.24;100.00;100511.27;110232;1276;22602;-68
2023/04/17 04:05:22;;;;;;;14.60;11.60;;;;;;;8.21;100.00;100509.77;110196;1269;22496;-67
2023/04/17 04:07:51;;;;;;;15.00;11.20;;;;;;;8.22;100.00;100512.67;110355;1276;22978;-68
2023/04/17 04:10:27;;;;;;;16.10;11.10;;;;;;;8.26;100.00;100511.77;108523;1276;23002;-68
2023/04/17 04:12:56;;;;;;;16.10;11.30;;;;;;;8.26;100.00;100512.86;107398;1274;25345;-67
2023/04/17 04:15:24;;;;;;;18.50;11.70;;;;;;;8.23;100.00;100513.50;107722;1275;25433;-67
2023/04/17 04:17:56;;;;;;;16.60;11.20;;;;;;;8.27;100.00;100513.11;107571;1275;26473;-67
2023/04/17 04:20:24;;;;;;;16.20;10.50;;;;;;;8.31;100.00;100516.00;107603;1270;22531;-67
2023/04/17 04:22:59;;;;;;;16.50;11.60;;;;;;;8.34;100.00;100515.19;108465;1275;22392;-67
2023/04/17 04:25:28;;;;;;;14.60;10.20;;;;;;;8.31;100.00;100519.09;110354;1275;22363;-68
2023/04/17 04:28:12;;;;;;;15.80;9.40;;;;;;;8.34;100.00;100526.55;110231;1275;22300;-68
2023/04/17 04:30:45;;;;;;;14.00;9.80;;;;;;;8.40;100.00;100524.55;110217;1275;22263;-68
2023/04/17 04:33:16;;;;;;;14.50;9.70;;;;;;;8.45;100.00;100528.08;110321;1273;22335;-68
2023/04/17 04:35:46;;;;;;;12.10;9.20;;;;;;;8.46;100.00;100526.91;110253;1276;22375;-67
2023/04/17 04:38:16;;;;;;;13.60;9.20;;;;;;;8.44;100.00;100531.85;110307;1275;23297;-68
2023/04/17 04:40:48;;;;;;;13.60;8.90;;;;;;;8.50;100.00;100531.50;110288;1276;22165;-67
2023/04/17 04:43:17;;;;;;;15.00;9.40;;;;;;;8.57;100.00;100529.24;110383;1276;22325;-66
2023/04/17 04:45:50;;;;;;;13.80;9.20;;;;;;;8.58;100.00;100532.21;108256;1275;22523;-67
2023/04/17 04:48:20;;;;;;;11.50;8.50;;;;;;;8.57;100.00;100532.45;107774;1276;22516;-67
2023/04/17 04:50:48;;;;;;;14.30;8.80;;;;;;;8.59;100.00;100529.52;107489;1269;25459;-68
2023/04/17 04:53:18;;;;;;;14.40;9.20;;;;;;;8.62;100.00;100534.09;107583;1270;25430;-67
2023/04/17 04:55:52;;;;;;;13.00;9.50;;;;;;;8.61;100.00;100530.81;109736;1274;22245;-68
2023/04/17 04:58:21;;;;;;;18.10;11.80;;;;;;;8.60;100.00;100528.35;110245;1276;22268;-68
2023/04/17 05:00:49;;;;;;;21.40;12.10;;;;;;;8.64;100.00;100522.12;110326;1270;22571;-68
2023/04/17 05:03:24;;;;;;;19.60;13.30;;;;;;;8.69;100.00;100526.48;110180;1275;22195;-68
2023/04/17 05:05:52;;;;;;;21.70;15.40;;;;;;;8.68;100.00;100522.64;108393;1275;25364;-68
2023/04/17 05:08:23;;;;;;;27.10;16.50;;;;;;;8.67;100.00;100522.30;107791;1276;22556;-68
2023/04/17 05:10:59;;;;;;;18.00;11.90;;;;;;;8.71;100.00;100522.11;107644;1276;22633;-69
2023/04/17 05:13:31;;;;;;;16.80;11.50;;;;;;;8.72;100.00;100524.36;107585;1274;25262;-67
2023/04/17 05:15:59;;;;;;;17.50;8.50;;;;;;;8.69;100.00;100524.61;107552;1276;22638;-67
2023/04/17 05:18:30;;;;;;;14.20;8.80;;;;;;;8.69;100.00;100527.23;107621;1270;23402;-67
2023/04/17 05:20:58;;;;;;;8.50;6.50;;;;;;;8.72;100.00;100528.98;107578;1273;22969;-67
2023/04/17 05:23:28;;;;;;;11.80;6.90;;;;;;;8.73;100.00;100526.17;107421;1276;22523;-68
2023/04/17 05:25:57;;;;;;;11.30;6.10;;;;;;;8.71;100.00;100532.82;107604;1276;24509;-68
2023/04/17 05:28:26;;;;;;;8.60;6.40;;;;;;;8.69;100.00;100534.86;107472;1270;22562;-68
2023/04/17 05:30:56;;;;;;;10.60;6.70;;;;;;;8.70;100.00;100539.02;107520;1276;25316;-68
2023/04/17 05:33:34;;;;;;;9.60;6.30;;;;;;;8.70;100.00;100539.95;107428;1275;25343;-67
2023/04/17 05:36:03;;;;;;;16.10;6.30;;;;;;;8.65;100.00;100538.92;107276;1272;22563;-68
2023/04/17 05:38:34;;;;;;;11.00;5.90;;;;;;;8.64;100.00;100541.07;107623;1276;23378;-67
2023/04/17 05:41:09;;;;;;;10.00;6.20;;;;;;;8.67;100.00;100540.59;107517;1275;27771;-67
2023/04/17 05:43:37;;;;;;;12.90;6.30;;;;;;;8.69;100.00;100534.82;107509;1273;22529;-67
2023/04/17 05:46:06;;;;;;;13.50;6.50;;;;;;;8.71;100.00;100534.66;107423;1274;22520;-68
2023/04/17 05:48:35;;;;;;;9.70;5.90;;;;;;;8.72;100.00;100531.23;107599;1270;24479;-68
2023/04/17 05:51:04;;;;;;;14.70;6.20;;;;;;;8.68;100.00;100530.89;110276;1273;23167;-68
2023/04/17 05:53:33;;;;;;;14.30;6.00;;;;;;;8.68;100.00;100529.47;109496;1276;25284;-68
2023/04/17 05:56:02;;;;;;;11.80;6.80;;;;;;;8.70;100.00;100528.17;107418;1275;22530;-68
2023/04/17 05:58:34;;;;;;;13.80;6.30;;;;;;;8.66;100.00;100523.16;107586;1275;26121;-67
2023/04/17 06:01:06;;;;;;;9.60;6.60;;;;;;;8.64;100.00;100524.41;107620;1276;22519;-67
2023/04/17 06:03:36;;;;;;;10.80;6.30;;;;;;;8.68;100.00;100525.73;107524;1276;25466;-68
2023/04/17 06:06:11;;;;;;;13.10;5.90;;;;;;;8.66;100.00;100527.66;107559;1275;22551;-68
2023/04/17 06:08:40;;;;;;;11.00;5.80;;;;;;;8.67;100.00;100528.06;107715;1274;23364;-68
2023/04/17 06:11:08;;;;;;;12.50;5.90;;;;;;;8.69;100.00;100527.17;107673;1273;22580;-68
2023/04/17 06:13:37;;;;;;;12.40;6.50;;;;;;;8.69;100.00;100524.77;107465;1276;22538;-68
2023/04/17 06:16:06;;;;;;;12.80;6.60;;;;;;;8.66;100.00;100527.16;107423;1272;22567;-68
2023/04/17 06:18:34;;;;;;;10.30;5.80;;;;;;;8.68;100.00;100521.61;110346;1276;22268;-68
2023/04/17 06:21:03;;;;;;;10.60;5.90;;;;;;;8.76;100.00;100518.85;110332;1276;22287;-68
2023/04/17 06:23:32;;;;;;;9.80;5.80;;;;;;;8.77;100.00;100515.12;110222;1276;22199;-68
2023/04/17 06:26:01;;;;;;;11.20;5.80;;;;;;;8.80;100.00;100516.92;110329;1270;22351;-69
2023/04/17 06:28:29;;;;;;;15.50;6.50;;;;;;;8.86;100.00;100516.05;110264;1276;22412;-68
2023/04/17 06:30:59;;;;;;;14.30;6.00;;;;;;;8.88;100.00;100514.27;110333;1276;22491;-68
2023/04/17 06:33:27;;;;;;;9.70;5.60;;;;;;;8.92;100.00;100513.30;110355;1275;23066;-69
2023/04/17 06:35:57;;;;;;;10.70;5.70;;;;;;;8.98;100.00;100506.95;110327;1276;22325;-68
2023/04/17 06:38:35;;;;;;;9.30;6.20;;;;;;;9.01;100.00;100502.94;110285;1275;22857;-68
2023/04/17 06:41:04;;;;;;;11.60;6.70;;;;;;;9.02;100.00;100499.49;110230;1276;22457;-68
2023/04/17 06:43:33;;;;;;;14.90;6.80;;;;;;;9.03;100.00;100499.21;110370;1276;23371;-69
2023/04/17 06:46:11;;;;;;;14.30;7.00;;;;;;;9.09;100.00;100500.38;110357;1276;22216;-68
2023/04/17 06:48:39;;;;;;;15.70;7.30;;;;;;;9.12;100.00;100502.27;109375;1276;22762;-68
2023/04/17 06:51:08;;;;;;;12.90;7.80;;;;;;;9.14;100.00;100497.47;107356;1270;24406;-68
2023/04/17 06:53:36;;;;;;;13.50;6.80;;;;;;;9.17;100.00;100499.70;107679;1276;23921;-68
2023/04/17 06:56:04;;;;;;;10.10;6.10;;;;;;;9.23;100.00;100499.81;107680;1271;25495;-68
2023/04/17 06:58:37;;;;;;;10.20;5.80;;;;;;;9.21;100.00;100499.02;107755;1274;22646;-68
2023/04/17 07:01:06;;;;;;;12.20;6.60;;;;;;;9.19;100.00;100497.67;110366;1276;22397;-68
2023/04/17 07:03:34;;;;;;;13.10;6.80;;;;;;;9.25;100.00;100496.42;110363;1276;22344;-69
2023/04/17 07:06:05;;;;;;;13.80;7.60;;;;;;;9.28;100.00;100491.86;110320;1276;23076;-68
2023/04/17 07:08:34;;;;;;;14.80;7.80;;;;;;;9.29;100.00;100490.89;110321;1276;22348;-67
2023/04/17 07:11:02;;;;;;;18.00;7.20;;;;;;;9.29;100.00;100485.45;110335;1270;23314;-68
2023/04/17 07:13:31;;;;;;;15.90;7.40;;;;;;;9.38;100.00;100488.40;110375;1275;22904;-69
2023/04/17 07:16:00;;;;;;;15.00;7.70;;;;;;;9.44;100.00;100484.09;110355;1275;22481;-67
2023/04/17 07:18:29;;;;;;;12.70;7.50;;;;;;;9.44;100.00;100481.48;110329;1273;22322;-68
2023/04/17 07:20:57;;;;;;;12.70;6.20;;;;;;;9.44;100.00;100483.94;110368;1275;22209;-68
2023/04/17 07:23:26;;;;;;;12.90;6.00;;;;;;;9.53;100.00;100482.44;110219;1273;25381;-68
2023/04/17 07:25:58;;;;;;;14.80;6.50;;;;;;;9.61;100.00;100487.77;107736;1270;24201;-67
2023/04/17 07:28:33;;;;;;;14.00;6.30;;;;;;;9.63;100.00;100483.21;107624;1273;22523;-67
2023/04/17 07:31:03;;;;;;;14.30;7.10;;;;;;;9.62;100.00;100488.69;107672;1273;22540;-68
2023/04/17 07:33:32;;;;;;;10.80;5.50;;;;;;;9.60;100.00;100481.96;107593;1276;25322;-68
2023/04/17 07:36:01;;;;;;;12.40;5.80;;;;;;;9.55;100.00;100471.17;107660;1274;23004;-68
2023/04/17 07:38:31;;;;;;;8.30;4.30;;;;;;;9.56;100.00;100467.70;107605;1270;26560;-69
2023/04/17 07:41:00;;;;;;;9.20;4.50;;;;;;;9.62;100.00;100461.27;107455;1272;25274;-69
2023/04/17 07:43:30;;;;;;;9.90;4.60;;;;;;;9.60;100.00;100456.25;107479;1270;23672;-69
2023/04/17 07:45:58;;;;;;;8.60;4.80;;;;;;;9.58;100.00;100452.88;107697;1275;23103;-68
2023/04/17 07:48:28;;;;;;;13.10;5.50;;;;;;;9.56;100.00;100448.80;107538;1276;25337;-69
2023/04/17 07:50:59;;;;;;;12.70;4.50;;;;;;;9.53;100.00;100450.70;107581;1276;22543;-68
2023/04/17 07:53:28;;;;;;;7.80;3.80;;;;;;;9.52;100.00;100446.61;107676;1270;22521;-69
2023/04/17 07:55:59;;;;;;;6.80;4.00;;;;;;;9.57;100.00;100446.95;108019;1272;22574;-66
2023/04/17 07:58:27;;;;;;;10.10;3.30;;;;;;;9.68;100.00;100448.71;107487;1270;26667;-68
2023/04/17 08:00:56;;;;;;;8.40;3.30;;;;;;;9.74;100.00;100445.86;110330;1269;22242;-68
2023/04/17 08:03:24;;;;;;;6.60;3.50;;;;;;;9.76;100.00;100441.98;110378;1275;22233;-69
2023/04/17 08:05:53;;;;;;;7.00;3.30;;;;;;;9.80;100.00;100432.64;110339;1271;22386;-68
2023/04/17 08:08:22;;;;;;;6.70;3.90;;;;;;;9.81;100.00;100426.18;110351;1276;22220;-68
2023/04/17 08:10:51;;;;;;;6.50;3.50;;;;;;;9.85;100.00;100423.51;110357;1275;22313;-67
2023/04/17 08:13:19;;;;;;;7.20;3.60;;;;;;;9.93;100.00;100423.91;110317;1274;22228;-68
2023/04/17 08:15:48;;;;;;;9.40;3.90;;;;;;;10.01;100.00;100426.45;110305;1270;22957;-68
2023/04/17 08:18:16;;;;;;;10.80;4.60;;;;;;;10.11;100.00;100425.98;110367;1275;22714;-68
2023/04/17 08:20:44;;;;;;;8.00;3.80;;;;;;;10.19;100.00;100421.07;110350;1276;22201;-68
2023/04/17 08:23:13;;;;;;;8.60;3.60;;;;;;;10.23;100.00;100412.47;110325;1270;22847;-69
2023/04/17 08:25:41;;;;;;;6.60;3.80;;;;;;;10.24;100.00;100409.33;110320;1270;23037;-68
2023/04/17 08:28:09;;;;;;;9.30;4.00;;;;;;;10.27;100.00;100410.79;110360;1275;22452;-69
2023/04/17 08:30:38;;;;;;;6.50;3.80;;;;;;;10.33;100.00;100411.02;108772;1270;22899;-68
2023/04/17 08:33:06;;;;;;;6.00;3.60;;;;;;;10.35;100.00;100400.32;107639;1269;23234;-68
2023/04/17 08:35:35;;;;;;;7.30;3.30;;;;;;;10.32;100.00;100391.69;107645;1269;23221;-68
2023/04/17 08:38:03;;;;;;;8.50;3.40;;;;;;;10.29;100.00;100386.85;107616;1275;25455;-67
2023/04/17 08:40:32;;;;;;;8.70;3.70;;;;;;;10.29;100.00;100385.98;107524;1273;23343;-69
2023/04/17 08:43:01;;;;;;;8.60;3.90;;;;;;;10.29;100.00;100384.52;107775;1270;25294;-67
2023/04/17 08:45:31;;;;;;;7.50;3.60;;;;;;;10.27;100.00;100383.45;107611;1275;26588;-68
2023/04/17 08:47:59;;;;;;;8.60;3.60;;;;;;;10.26;100.00;100380.02;107545;1276;22543;-68
2023/04/17 08:50:28;;;;;;;6.70;3.20;;;;;;;10.26;100.00;100375.77;107688;1269;23743;-68
2023/04/17 08:52:56;;;;;;;6.60;3.20;;;;;;;10.27;100.00;100379.21;107629;1270;22553;-68
2023/04/17 08:55:27;;;;;;;9.30;3.20;;;;;;;10.30;100.00;100377.83;109808;1270;22223;-68
2023/04/17 08:57:56;;;;;;;6.70;3.50;;;;;;;10.35;100.00;100378.77;110382;1270;22352;-68
2023/04/17 09:00:30;;;;;;;5.00;3.00;;;;;;;10.41;100.00;100374.59;110267;1270;22546;-68
2023/04/17 09:02:59;;;;;;;9.50;3.30;;;;;;;10.44;100.00;100376.91;110338;1275;22350;-68
2023/04/17 09:05:29;;;;;;;8.80;3.10;;;;;;;10.50;100.00;100376.27;110362;1272;22386;-68
2023/04/17 09:08:19;;;;;;;5.70;3.30;;;;;;;10.53;100.00;100376.14;110341;1273;22378;-68
2023/04/17 09:10:52;;;;;;;7.50;3.20;;;;;;;10.59;100.00;100372.55;110191;1272;23369;-68
2023/04/17 09:13:23;;;;;;;6.20;2.90;;;;;;;10.64;100.00;100365.04;110363;1270;22216;-68
2023/04/17 09:16:06;;;;;;;8.40;3.10;;;;;;;10.70;100.00;100362.33;110292;1270;22224;-68
2023/04/17 09:18:36;;;;;;;8.40;3.10;;;;;;;10.81;100.00;100368.97;110334;1270;22408;-69
2023/04/17 09:21:05;;;;;;;7.30;3.40;;;;;;;10.97;100.00;100370.54;110165;1269;268627;-68
2023/04/17 09:24:16;;;;;;;7.50;3.30;;;;;;;11.16;100.00;100363.84;104404;1312;545770;-66
2023/04/17 09:26:45;;;;;;;8.60;3.30;;;;;;;11.27;100.00;100362.94;106450;1285;22532;-68
2023/04/17 09:29:14;;;;;;;6.80;3.90;;;;;;;11.35;100.00;100358.21;107490;1277;22556;-68
2023/04/17 09:31:43;;;;;;;8.00;3.50;;;;;;;11.47;100.00;100361.83;107591;1271;22661;-66
2023/04/17 09:34:12;;;;;;;5.70;3.20;;;;;;;11.56;100.00;100356.98;110193;1277;22316;-69
2023/04/17 09:36:42;;;;;;;9.50;4.10;;;;;;;11.66;100.00;100360.85;110128;1271;22733;-68
2023/04/17 09:39:19;;;;;;;6.50;3.40;;;;;;;11.75;100.00;100357.83;110033;1271;22367;-68
2023/04/17 09:41:48;;;;;;;7.80;3.90;;;;;;;11.84;100.00;100356.34;110315;1273;22225;-69
2023/04/17 09:44:26;;;;;;;10.80;3.80;;;;;;;11.94;100.00;100355.86;110327;1271;22513;-68
2023/04/17 09:46:55;;;;;;;8.30;3.80;;;;;;;12.12;100.00;100349.11;110361;1270;22411;-68
2023/04/17 09:49:38;;;;;;;7.00;3.30;;;;;;;12.25;100.00;100345.44;110328;1273;22371;-68
2023/04/17 09:52:07;;;;;;;6.60;3.20;;;;;;;12.37;100.00;100346.35;110195;1270;23339;-68
2023/04/17 09:54:36;;;;;;;5.60;3.00;;;;;;;12.65;100.00;100347.35;110383;1270;22267;-68
2023/04/17 09:57:09;;;;;;;7.60;2.90;;;;;;;12.92;100.00;100340.45;110355;1271;22240;-68
2023/04/17 09:59:40;;;;;;;5.70;3.10;;;;;;;13.16;100.00;100344.30;110326;1270;22560;-68
2023/04/17 10:02:12;;;;;;;7.10;2.40;;;;;;;13.38;100.00;100337.02;110381;1271;22354;-68
2023/04/17 10:04:42;;;;;;;5.20;2.40;;;;;;;13.55;100.00;100322.27;109350;1270;22669;-68
2023/04/17 10:07:12;;;;;;;6.00;2.30;;;;;;;13.62;100.00;100307.27;107776;1269;22753;-68
2023/04/17 10:09:42;;;;;;;4.20;1.90;;;;;;;13.57;100.00;100301.64;107595;1273;24225;-67
2023/04/17 10:12:14;;;;;;;6.10;2.50;;;;;;;13.50;100.00;100302.04;107450;1272;22516;-68
2023/04/17 10:14:45;;;;;;;7.80;2.30;;;;;;;13.48;100.00;100300.96;107624;1269;25363;-67
2023/04/17 10:17:22;;;;;;;8.50;3.10;;;;;;;13.51;100.00;100311.67;107499;1269;22996;-67
2023/04/17 10:19:51;;;;;;;;;;;;;;;13.66;100.00;100321.21;107823;1270;24346;-67
2023/04/17 10:22:20;;;;;;;6.70;3.10;;;;;;;13.73;100.00;100327.53;107603;1270;22543;-66
2023/04/17 10:24:51;;;;;;;5.60;3.00;;;;;;;13.73;100.00;100328.19;107720;1270;24628;-67
2023/04/17 10:27:26;;;;;;;9.20;3.10;;;;;;;13.64;100.00;100333.08;108017;1268;22974;-67
2023/04/17 10:30:00;;;;;;;5.70;2.90;;;;;;;13.56;100.00;100332.06;107605;1270;25075;-67
2023/04/17 10:32:31;;;;;;;6.70;3.50;;;;;;;13.56;100.00;100340.48;107764;1275;24276;-68
2023/04/17 10:35:16;;;;;;;6.50;3.40;;;;;;;13.54;100.00;100342.40;107571;1269;24498;-67
2023/04/17 10:37:49;;;;;;;7.60;3.10;;;;;;;13.37;100.00;100345.55;107754;1270;24206;-67
2023/04/17 10:40:21;;;;;;;6.30;3.20;;;;;;;13.18;100.00;100348.63;107623;1269;23896;-67
2023/04/17 10:43:02;;;;;;;7.60;3.30;;;;;;;13.04;100.00;100350.50;107674;1270;22674;-67
2023/04/17 10:45:54;;;;;;;9.20;3.80;;;;;;;12.88;100.00;100353.89;107808;1273;23251;-68
2023/04/17 10:48:34;;;;;;;7.40;3.50;;;;;;;12.78;100.00;100362.06;110423;1274;22224;-68
2023/04/17 10:51:23;;;;;;;6.40;2.90;;;;;;;12.70;100.00;100363.90;110393;1275;22412;-68
2023/04/17 10:53:55;;;;;;;6.40;3.00;;;;;;;12.60;100.00;100362.91;110390;1267;22393;-68
2023/04/17 10:56:29;;;;;;;6.70;2.80;;;;;;;12.58;100.00;100366.23;110318;1274;22265;-67
2023/04/17 10:58:59;;;;;;;4.60;2.90;;;;;;;12.55;100.00;100370.66;110280;1267;22305;-67
2023/04/17 11:01:30;;;;;;;6.20;3.20;;;;;;;12.49;100.00;100370.97;110329;1269;22701;-68
2023/04/17 11:03:59;;;;;;;6.50;3.40;;;;;;;12.52;100.00;100379.27;109577;1270;24440;-67
2023/04/17 11:06:30;;;;;;;7.90;3.00;;;;;;;12.63;100.00;100378.33;109827;1276;22226;-67
2023/04/17 11:08:59;;;;;;;6.30;3.00;;;;;;;12.72;100.00;100378.61;107751;1270;22521;-67
2023/04/17 11:11:27;;;;;;;5.40;2.80;;;;;;;12.73;100.00;100372.77;107736;1270;22539;-66
2023/04/17 11:14:13;;;;;;;8.10;2.50;;;;;;;12.71;100.00;100373.60;107598;1269;25403;-67
2023/04/17 11:16:44;;;;;;;6.50;2.50;;;;;;;12.69;100.00;100368.16;107486;1269;22570;-67
2023/04/17 11:19:18;;;;;;;5.80;2.80;;;;;;;12.67;100.00;100369.70;107688;1270;22579;-66
2023/04/17 11:21:49;;;;;;;5.10;2.10;;;;;;;12.71;100.00;100363.85;107668;1269;22716;-67